Time;durP1;ratioP1;P1;durP2;ratioP2;P2;SDS_P1;SDS_P2;PMS_P1;PMS_P2;Temp;Humidity;BMP_temperature;BMP_pressure;BME280_temperature;BME280_humidity;BME280_pressure;Samples;Min_cycle;Max_cycle;Signal;HPM_P1;HPM_P2
2021/12/06 00:02:02;;;;;;;34.05;17.10;;;;;;;2.26;100.00;100907.13;4955123;28;20026;-76
2021/12/06 00:04:32;;;;;;;34.08;16.85;;;;;;;2.29;100.00;100869.66;4964397;28;20462;-76
2021/12/06 00:07:03;;;;;;;33.45;17.33;;;;;;;3.01;100.00;101013.72;4960319;28;20038;-75
2021/12/06 00:09:29;;;;;;;36.38;17.45;;;;;;;2.65;100.00;100903.41;4955679;28;20039;-76
2021/12/06 00:11:58;;;;;;;36.30;17.42;;;;;;;2.88;100.00;100996.13;4947559;28;20382;-76
2021/12/06 00:14:28;;;;;;;38.20;17.30;;;;;;;2.85;100.00;100975.38;4968388;28;20101;-76
2021/12/06 00:16:58;;;;;;;35.22;17.40;;;;;;;2.76;100.00;100925.47;4948286;28;20098;-75
2021/12/06 00:19:25;;;;;;;36.53;17.08;;;;;;;3.20;100.00;100996.16;4971461;28;20027;-76
2021/12/06 00:21:53;;;;;;;37.38;17.58;;;;;;;2.24;100.00;100869.91;4966710;28;20027;-75
2021/12/06 00:24:19;;;;;;;36.17;16.88;;;;;;;3.11;100.00;101002.72;4939020;28;20058;-75
2021/12/06 00:26:45;;;;;;;39.85;17.27;;;;;;;3.14;100.00;101022.59;4938326;28;20023;-76
2021/12/06 00:29:10;;;;;;;34.83;17.20;;;;;;;2.43;100.00;100914.13;4961732;28;20042;-76
2021/12/06 00:31:37;;;;;;;34.83;17.45;;;;;;;2.94;100.00;100971.47;4959247;28;20051;-75
2021/12/06 00:34:07;;;;;;;39.00;17.63;;;;;;;2.69;100.00;100969.28;4954478;28;20090;-76
2021/12/06 00:36:37;;;;;;;42.33;17.83;;;;;;;2.88;100.00;100992.63;4953795;28;20031;-74
2021/12/06 00:39:06;;;;;;;38.72;18.23;;;;;;;2.69;100.00;100993.59;4948883;28;20034;-76
2021/12/06 00:41:32;;;;;;;36.40;17.90;;;;;;;3.04;100.00;101022.22;4953034;28;20042;-75
2021/12/06 00:44:00;;;;;;;41.58;19.50;;;;;;;2.80;100.00;101010.47;4955342;28;20031;-76
2021/12/06 00:46:26;;;;;;;37.53;18.15;;;;;;;2.64;100.00;100986.94;4956226;28;20430;-76
2021/12/06 00:48:52;;;;;;;36.67;17.25;;;;;;;3.11;100.00;101028.84;4943039;28;20026;-75
2021/12/06 00:51:19;;;;;;;40.40;17.80;;;;;;;2.97;100.00;101065.19;4974821;28;20074;-76
2021/12/06 00:53:45;;;;;;;38.50;18.00;;;;;;;2.21;100.00;100931.75;4954761;28;20029;-75
2021/12/06 00:56:11;;;;;;;37.25;18.35;;;;;;;2.91;100.00;101000.31;4956900;28;20023;-75
2021/12/06 00:58:36;;;;;;;40.45;19.85;;;;;;;2.61;100.00;101000.97;4954264;28;20372;-75
2021/12/06 01:01:04;;;;;;;36.85;17.90;;;;;;;3.14;100.00;101043.47;4954935;28;20043;-76
2021/12/06 01:03:34;;;;;;;38.75;17.98;;;;;;;3.19;100.00;101035.41;4965208;28;20046;-75
2021/12/06 01:06:00;;;;;;;38.35;17.08;;;;;;;3.07;100.00;101023.84;4926564;28;20027;-76
2021/12/06 01:08:26;;;;;;;37.72;17.10;;;;;;;2.27;100.00;100926.22;4955431;28;20020;-75
2021/12/06 01:10:54;;;;;;;38.55;17.58;;;;;;;2.18;100.00;100908.44;4956604;28;20040;-76
2021/12/06 01:13:21;;;;;;;37.65;17.70;;;;;;;2.40;100.00;100950.75;4958206;28;20042;-76
2021/12/06 01:15:47;;;;;;;44.35;17.90;;;;;;;2.93;100.00;101038.44;4971273;28;20039;-76
2021/12/06 01:18:19;;;;;;;38.03;19.00;;;;;;;2.97;100.00;101057.38;4974560;28;20015;-76
2021/12/06 01:21:15;;;;;;;37.85;17.13;;;;;;;2.99;100.00;101073.78;4975212;28;20030;-77
2021/12/06 01:23:48;;;;;;;39.10;17.25;;;;;;;2.45;100.00;100956.59;4970292;28;20083;-75
2021/12/06 01:29:25;;;;;;;35.47;17.40;;;;;;;2.93;100.00;101028.00;4931239;28;20057;-73
2021/12/06 01:32:00;;;;;;;36.38;17.60;;;;;;;2.84;100.00;101043.25;4939076;28;20039;-75
2021/12/06 01:39:41;;;;;;;37.75;16.88;;;;;;;2.84;100.00;101028.47;4969545;28;20023;-74
2021/12/06 01:42:10;;;;;;;37.88;17.38;;;;;;;3.07;100.00;101055.16;4954627;28;20030;-75
2021/12/06 01:44:42;;;;;;;36.08;18.10;;;;;;;2.95;100.00;101074.03;4943673;28;20030;-74
2021/12/06 01:47:10;;;;;;;36.83;17.20;;;;;;;2.84;100.00;101044.13;4960134;28;20035;-75
2021/12/06 01:49:48;;;;;;;38.30;17.77;;;;;;;2.78;100.00;101022.72;4972687;28;20078;-77
2021/12/06 01:52:23;;;;;;;36.88;17.30;;;;;;;2.71;100.00;101014.38;4973593;28;20140;-75
2021/12/06 01:54:49;;;;;;;34.72;16.75;;;;;;;2.01;100.00;100909.28;4949472;28;20030;-76
2021/12/06 01:57:18;;;;;;;37.42;16.75;;;;;;;3.21;100.00;101098.81;4960015;28;20026;-75
2021/12/06 01:59:44;;;;;;;35.22;17.73;;;;;;;2.51;100.00;101016.22;4945568;28;20015;-75
2021/12/06 02:02:11;;;;;;;37.63;16.95;;;;;;;3.33;100.00;101093.78;4967934;28;20018;-75
2021/12/06 02:04:39;;;;;;;36.90;17.00;;;;;;;2.82;100.00;101082.50;4933982;28;20023;-74
2021/12/06 02:07:07;;;;;;;36.03;16.55;;;;;;;2.63;100.00;101056.47;4972435;28;20027;-75
2021/12/06 02:09:33;;;;;;;38.38;16.80;;;;;;;2.76;100.00;101087.16;4955699;28;20023;-75
2021/12/06 02:12:01;;;;;;;40.65;16.83;;;;;;;2.78;100.00;101098.38;4970063;28;20038;-75
2021/12/06 02:14:49;;;;;;;33.97;16.35;;;;;;;2.80;100.00;101091.31;4969148;28;20023;-74
2021/12/06 02:17:23;;;;;;;35.75;17.48;;;;;;;2.78;100.00;101069.69;4952335;28;20138;-76
2021/12/06 02:19:59;;;;;;;37.63;17.25;;;;;;;2.58;100.00;101014.13;4967816;28;20027;-75
2021/12/06 02:22:27;;;;;;;37.22;16.83;;;;;;;2.62;100.00;101085.25;4955462;28;20027;-75
2021/12/06 02:24:55;;;;;;;35.42;15.40;;;;;;;2.84;100.00;101082.38;4965779;28;20461;-73
2021/12/06 02:27:24;;;;;;;37.45;15.95;;;;;;;2.34;100.00;100995.38;4953499;28;20033;-73
2021/12/06 02:29:52;;;;;;;38.08;16.13;;;;;;;2.78;100.00;101072.28;4956898;28;20218;-75
2021/12/06 02:32:19;;;;;;;36.63;16.20;;;;;;;3.08;100.00;101075.94;4955505;28;20354;-75
2021/12/06 02:34:50;;;;;;;33.60;15.52;;;;;;;1.60;100.00;100923.41;4956498;28;20129;-74
2021/12/06 02:37:23;;;;;;;34.58;15.05;;;;;;;2.60;100.00;101043.59;4955931;28;20065;-74
2021/12/06 02:39:50;;;;;;;31.90;15.65;;;;;;;1.62;100.00;100868.66;4950475;28;20165;-74
2021/12/06 02:42:17;;;;;;;31.35;14.68;;;;;;;3.00;100.00;101074.63;4974693;28;20034;-75
2021/12/06 02:44:44;;;;;;;33.45;14.88;;;;;;;2.37;100.00;101000.41;4950722;28;20027;-75
2021/12/06 02:47:10;;;;;;;28.77;13.43;;;;;;;2.61;100.00;101041.81;4966328;28;20023;-76
2021/12/06 02:49:36;;;;;;;31.95;14.98;;;;;;;2.74;100.00;101074.19;4946702;28;20037;-73
2021/12/06 02:52:03;;;;;;;28.00;14.45;;;;;;;2.27;100.00;100993.97;4950063;28;20058;-74
2021/12/06 02:54:29;;;;;;;28.17;14.63;;;;;;;2.44;100.00;101076.56;4968971;28;20087;-73
2021/12/06 02:57:07;;;;;;;28.92;14.13;;;;;;;2.61;100.00;101091.34;4971048;28;20082;-74
2021/12/06 02:59:35;;;;;;;32.38;15.25;;;;;;;2.04;100.00;100959.50;4973677;28;20023;-74
2021/12/06 03:02:06;;;;;;;31.73;15.05;;;;;;;2.58;100.00;101039.38;4956820;28;20024;-74
2021/12/06 03:04:32;;;;;;;34.08;15.32;;;;;;;3.00;100.00;101067.69;4944248;28;20086;-75
2021/12/06 03:06:59;;;;;;;36.28;15.18;;;;;;;2.07;100.00;100954.13;4968215;28;20032;-74
2021/12/06 03:09:33;;;;;;;31.70;15.07;;;;;;;2.07;100.00;100951.50;4952124;28;20026;-75
2021/12/06 03:12:07;;;;;;;33.25;15.02;;;;;;;2.97;100.00;101074.81;4937088;28;20042;-75
2021/12/06 03:14:36;;;;;;;31.17;14.80;;;;;;;2.44;100.00;100999.19;4965800;28;20030;-73
2021/12/06 03:17:05;;;;;;;33.72;15.75;;;;;;;2.43;100.00;101002.72;4970556;28;20498;-73
2021/12/06 03:19:32;;;;;;;31.70;14.93;;;;;;;2.73;100.00;101051.66;4943279;28;20016;-74
2021/12/06 03:21:57;;;;;;;32.83;15.57;;;;;;;2.34;100.00;100977.13;4959662;28;20023;-75
2021/12/06 03:24:23;;;;;;;33.03;15.40;;;;;;;2.95;100.00;101074.03;4955935;28;20149;-76
2021/12/06 03:26:50;;;;;;;34.83;15.88;;;;;;;2.59;100.00;101039.31;4946745;28;20050;-75
2021/12/06 03:29:17;;;;;;;36.25;15.80;;;;;;;2.28;100.00;100975.66;4941558;28;20034;-74
2021/12/06 03:31:42;;;;;;;36.78;15.90;;;;;;;2.89;100.00;101060.38;4942980;28;20393;-75
2021/12/06 03:34:10;;;;;;;33.65;15.98;;;;;;;2.26;100.00;101010.53;4944428;28;20043;-75
2021/12/06 03:36:38;;;;;;;32.40;15.50;;;;;;;2.87;100.00;101053.56;4956378;28;20035;-75
2021/12/06 03:39:10;;;;;;;33.58;15.85;;;;;;;2.39;100.00;100969.09;4938863;28;20039;-75
2021/12/06 03:41:37;;;;;;;32.55;16.05;;;;;;;3.02;100.00;101081.50;4939849;28;20032;-75
2021/12/06 03:44:03;;;;;;;33.38;15.02;;;;;;;2.48;100.00;100979.88;4978318;28;20106;-75
2021/12/06 03:46:33;;;;;;;34.33;15.57;;;;;;;2.85;100.00;101047.56;4966316;28;20069;-75
2021/12/06 03:48:59;;;;;;;35.30;16.30;;;;;;;2.86;100.00;101049.25;4931549;28;20019;-75
2021/12/06 03:51:25;;;;;;;35.42;16.50;;;;;;;3.01;100.00;101063.28;4972274;28;20018;-75
2021/12/06 03:53:51;;;;;;;36.05;16.30;;;;;;;2.26;100.00;100974.06;4972245;28;20028;-75
2021/12/06 03:56:16;;;;;;;35.78;17.27;;;;;;;2.84;100.00;101075.44;4965963;28;20034;-75
2021/12/06 03:58:44;;;;;;;36.83;16.70;;;;;;;2.97;100.00;101066.97;4957540;28;20480;-76
2021/12/06 04:01:11;;;;;;;39.60;17.20;;;;;;;2.91;100.00;101049.88;4941019;28;20077;-76
2021/12/06 04:03:37;;;;;;;39.88;17.00;;;;;;;2.61;100.00;100992.28;4954671;28;20023;-76
2021/12/06 04:06:06;;;;;;;35.50;16.65;;;;;;;2.79;100.00;101066.13;4950369;28;20110;-76
2021/12/06 04:08:32;;;;;;;36.70;16.67;;;;;;;2.53;100.00;101007.50;4977392;28;20037;-76
2021/12/06 04:10:57;;;;;;;37.50;16.83;;;;;;;2.76;100.00;101053.25;4977208;28;20014;-75
2021/12/06 04:13:23;;;;;;;38.25;18.05;;;;;;;2.70;100.00;101037.00;4978763;28;20477;-75
2021/12/06 04:15:50;;;;;;;37.17;16.35;;;;;;;2.64;100.00;101063.38;4944831;28;20430;-75
2021/12/06 04:18:16;;;;;;;34.90;16.73;;;;;;;2.81;100.00;101079.94;4965407;28;20093;-76
2021/12/06 04:20:41;;;;;;;38.13;17.08;;;;;;;2.57;100.00;101022.06;4979140;28;20030;-75
2021/12/06 04:23:09;;;;;;;39.22;18.35;;;;;;;2.75;100.00;101075.91;4975870;28;20536;-76
2021/12/06 04:25:36;;;;;;;39.88;16.98;;;;;;;2.86;100.00;101093.59;4956880;28;20081;-75
2021/12/06 04:28:06;;;;;;;40.95;17.45;;;;;;;1.68;100.00;100923.03;4976432;28;20094;-76
2021/12/06 04:30:34;;;;;;;40.50;17.80;;;;;;;2.84;100.00;101098.03;4976320;28;20432;-74
2021/12/06 04:33:00;;;;;;;39.72;17.52;;;;;;;2.79;100.00;101087.00;4947212;28;20383;-75
2021/12/06 04:35:30;;;;;;;38.10;16.85;;;;;;;2.96;100.00;101086.16;4926152;28;20036;-74
2021/12/06 04:37:56;;;;;;;39.53;17.75;;;;;;;2.82;100.00;101099.91;4958557;28;20162;-75
2021/12/06 04:40:22;;;;;;;40.72;17.92;;;;;;;2.62;100.00;101069.59;4959985;28;20027;-76
2021/12/06 04:42:47;;;;;;;41.92;18.63;;;;;;;2.68;100.00;101103.16;4958150;28;20086;-75
2021/12/06 04:45:15;;;;;;;43.85;19.10;;;;;;;2.66;100.00;101090.22;4976479;28;20027;-76
2021/12/06 04:47:41;;;;;;;40.13;18.42;;;;;;;2.02;100.00;101002.13;4932327;28;20035;-74
2021/12/06 04:50:12;;;;;;;44.20;19.00;;;;;;;2.63;100.00;101098.19;4967412;28;20037;-74
2021/12/06 04:52:38;;;;;;;45.60;19.05;;;;;;;2.48;100.00;101099.78;4940605;28;20049;-75
2021/12/06 04:55:11;;;;;;;47.40;20.02;;;;;;;2.16;100.00;101085.69;4958685;28;20496;-75
2021/12/06 04:57:43;;;;;;;42.28;18.73;;;;;;;2.43;100.00;101083.53;4958733;28;20038;-75
2021/12/06 05:00:15;;;;;;;43.92;18.77;;;;;;;2.25;100.00;101030.53;4954838;28;20047;-75
2021/12/06 05:02:42;;;;;;;40.80;18.25;;;;;;;2.64;100.00;101096.44;4953012;28;20035;-75
2021/12/06 05:05:28;;;;;;;43.63;18.38;;;;;;;2.48;100.00;101042.44;4954225;28;20062;-75
2021/12/06 05:08:02;;;;;;;42.90;17.65;;;;;;;2.64;100.00;101070.38;4970073;28;20023;-74
2021/12/06 05:10:28;;;;;;;39.17;17.85;;;;;;;1.73;100.00;100962.72;4953311;28;20448;-75
2021/12/06 05:12:54;;;;;;;40.08;19.27;;;;;;;2.25;100.00;101042.72;4970086;28;20106;-75
2021/12/06 05:15:20;;;;;;;41.10;18.33;;;;;;;2.39;100.00;101066.34;4949434;28;20027;-77
2021/12/06 05:17:46;;;;;;;43.78;18.48;;;;;;;2.01;100.00;101029.94;4952570;28;20059;-77
2021/12/06 05:20:13;;;;;;;40.63;17.95;;;;;;;1.86;100.00;100987.25;4954613;28;20102;-77
2021/12/06 05:22:40;;;;;;;40.35;18.55;;;;;;;1.82;100.00;100985.72;4973299;28;20139;-76
2021/12/06 05:25:07;;;;;;;41.88;18.77;;;;;;;1.55;100.00;100940.16;4955704;28;20058;-76
2021/12/06 05:27:32;;;;;;;43.13;19.35;;;;;;;1.46;100.00;100999.53;4931553;28;20034;-76
2021/12/06 05:30:02;;;;;;;44.35;18.63;;;;;;;2.32;100.00;101098.84;4957806;28;20031;-77
2021/12/06 05:32:32;;;;;;;42.42;18.50;;;;;;;1.86;100.00;101034.13;4968802;28;20050;-76
2021/12/06 05:35:05;;;;;;;45.58;19.17;;;;;;;1.52;100.00;100963.72;4935432;28;20045;-75
2021/12/06 05:37:32;;;;;;;46.25;18.00;;;;;;;2.30;100.00;101065.03;4959344;28;20488;-75
2021/12/06 05:39:57;;;;;;;41.15;18.23;;;;;;;2.35;100.00;101105.66;4958704;28;20381;-75
2021/12/06 05:42:23;;;;;;;45.85;19.88;;;;;;;1.60;100.00;101056.16;4959866;28;20030;-74
2021/12/06 05:44:49;;;;;;;49.55;19.77;;;;;;;1.13;100.00;100972.44;4932155;28;20105;-75
2021/12/06 05:47:16;;;;;;;45.00;19.40;;;;;;;1.24;100.00;100996.19;4959334;28;20089;-74
2021/12/06 05:49:50;;;;;;;50.58;20.95;;;;;;;1.93;100.00;101088.50;4965426;28;20018;-74
2021/12/06 05:52:16;;;;;;;47.47;19.77;;;;;;;2.18;100.00;101109.91;4959892;28;20029;-74
2021/12/06 05:54:41;;;;;;;50.08;20.33;;;;;;;1.83;100.00;101104.56;4959101;28;20147;-74
2021/12/06 05:57:11;;;;;;;49.97;21.17;;;;;;;1.91;100.00;101108.56;4948319;28;20050;-74
2021/12/06 05:59:38;;;;;;;51.70;21.10;;;;;;;1.72;100.00;101104.19;4964289;28;20536;-74
2021/12/06 06:02:06;;;;;;;52.50;20.50;;;;;;;1.73;100.00;101108.50;4977818;28;20477;-75
2021/12/06 06:04:32;;;;;;;50.35;20.60;;;;;;;2.11;100.00;101102.44;4977079;28;20110;-76
2021/12/06 06:06:58;;;;;;;54.22;20.60;;;;;;;2.44;100.00;101113.88;4977821;28;20023;-76
2021/12/06 06:09:27;;;;;;;49.65;20.92;;;;;;;1.94;100.00;101041.56;4960507;28;20031;-76
2021/12/06 06:11:54;;;;;;;56.47;21.80;;;;;;;2.09;100.00;101069.50;4959450;28;20043;-76
2021/12/06 06:14:20;;;;;;;52.22;20.92;;;;;;;2.42;100.00;101120.94;4958989;28;20113;-75
2021/12/06 06:16:47;;;;;;;49.83;19.48;;;;;;;2.35;100.00;101108.28;4966243;28;20108;-76
2021/12/06 06:19:18;;;;;;;47.33;20.98;;;;;;;1.99;100.00;101102.09;4983571;28;20031;-73
2021/12/06 06:21:46;;;;;;;56.38;21.63;;;;;;;1.80;100.00;101021.38;4975951;28;20078;-73
2021/12/06 06:24:11;;;;;;;47.15;21.15;;;;;;;2.11;100.00;101118.06;4976563;28;20038;-75
2021/12/06 06:26:38;;;;;;;53.95;22.23;;;;;;;1.65;100.00;101007.31;4945573;28;20174;-74
2021/12/06 06:29:04;;;;;;;52.08;20.25;;;;;;;2.41;100.00;101118.41;4984291;28;20023;-74
2021/12/06 06:31:30;;;;;;;50.80;21.15;;;;;;;2.65;100.00;101108.53;4979984;28;20027;-75
2021/12/06 06:33:55;;;;;;;50.67;20.60;;;;;;;2.55;100.00;101121.19;4961236;28;20085;-75
2021/12/06 06:36:21;;;;;;;53.60;22.13;;;;;;;1.73;100.00;101001.78;4975416;28;20038;-75
2021/12/06 06:38:47;;;;;;;53.45;21.38;;;;;;;2.08;100.00;101096.47;4954212;28;20022;-75
2021/12/06 06:41:12;;;;;;;53.53;21.95;;;;;;;1.35;100.00;100999.16;4958861;28;20030;-75
2021/12/06 06:43:40;;;;;;;52.70;20.65;;;;;;;2.29;100.00;101094.63;4959131;28;20034;-75
2021/12/06 06:46:06;;;;;;;58.58;20.98;;;;;;;1.99;100.00;101096.06;4940008;29;20459;-75
2021/12/06 06:48:33;;;;;;;56.55;21.60;;;;;;;1.85;100.00;101126.16;4963298;28;20046;-75
2021/12/06 06:50:59;;;;;;;112.55;21.10;;;;;;;1.08;100.00;101062.81;4939261;28;20034;-75
2021/12/06 06:53:26;;;;;;;83.55;22.35;;;;;;;1.45;100.00;101134.91;4938991;29;20079;-76
2021/12/06 06:55:55;;;;;;;76.88;22.80;;;;;;;1.15;100.00;101129.28;4947314;28;20043;-78
2021/12/06 06:58:21;;;;;;;102.35;22.52;;;;;;;0.88;100.00;101030.72;4946708;28;20382;-76
2021/12/06 07:00:48;;;;;;;102.30;23.35;;;;;;;1.27;100.00;101149.53;4952122;23;20070;-77
2021/12/06 07:03:14;;;;;;;91.50;25.05;;;;;;;0.73;100.00;101105.00;4959520;28;20372;-77
2021/12/06 07:05:40;;;;;;;64.10;23.00;;;;;;;0.91;100.00;101068.72;4979746;28;20023;-77
2021/12/06 07:08:06;;;;;;;78.80;24.02;;;;;;;1.27;100.00;101146.09;4965116;28;20469;-76
2021/12/06 07:10:32;;;;;;;67.18;22.67;;;;;;;1.01;100.00;101085.66;4953436;29;20031;-77
2021/12/06 07:13:11;;;;;;;61.20;22.90;;;;;;;0.34;100.00;101013.91;4967310;29;20217;-77
2021/12/06 07:15:37;;;;;;;69.03;22.77;;;;;;;0.49;100.00;101046.22;4969780;29;20110;-77
2021/12/06 07:18:04;;;;;;;66.47;22.75;;;;;;;0.43;100.00;101051.66;4950012;29;20505;-76
2021/12/06 07:20:32;;;;;;;81.53;27.05;;;;;;;1.06;100.00;101081.09;4950882;29;20027;-78
2021/12/06 07:22:59;;;;;;;66.15;22.67;;;;;;;1.32;100.00;101131.13;4958757;28;20556;-77
2021/12/06 07:25:27;;;;;;;64.03;22.58;;;;;;;1.15;100.00;101098.06;4923287;29;20046;-77
2021/12/06 07:27:53;;;;;;;60.88;23.40;;;;;;;0.43;100.00;100956.38;4967788;28;20035;-77
2021/12/06 07:30:20;;;;;;;64.68;23.38;;;;;;;1.39;100.00;101135.19;4942913;29;20042;-76
2021/12/06 07:32:48;;;;;;;87.88;31.48;;;;;;;1.49;100.00;101125.22;4953761;28;20024;-76
2021/12/06 07:35:15;;;;;;;71.47;25.38;;;;;;;0.45;100.00;100896.56;4943148;29;20098;-77
2021/12/06 07:37:43;;;;;;;67.38;24.35;;;;;;;0.82;100.00;100989.41;4933951;29;20027;-76
2021/12/06 07:40:11;;;;;;;62.03;23.58;;;;;;;0.99;100.00;101062.28;4945670;29;20143;-77
2021/12/06 07:42:36;;;;;;;61.58;24.02;;;;;;;0.42;100.00;100993.69;4926376;29;20169;-77
2021/12/06 07:45:06;;;;;;;61.75;22.67;;;;;;;1.28;100.00;101147.81;4941841;28;20433;-76
2021/12/06 07:47:31;;;;;;;65.63;25.40;;;;;;;1.15;100.00;101027.81;4941936;29;20031;-76
2021/12/06 07:50:00;;;;;;;85.40;30.02;;;;;;;1.40;100.00;101131.66;4941624;29;20030;-76
2021/12/06 07:52:26;;;;;;;70.65;24.98;;;;;;;0.88;100.00;101032.47;4939425;29;20114;-75
2021/12/06 07:54:57;;;;;;;142.10;54.53;;;;;;;1.35;100.00;101111.06;4942025;29;20453;-76
2021/12/06 07:57:23;;;;;;;63.60;23.13;;;;;;;1.50;100.00;101135.56;4941617;28;20074;-75
2021/12/06 07:59:48;;;;;;;63.50;23.98;;;;;;;1.87;100.00;101126.13;4959206;28;20027;-76
2021/12/06 08:02:15;;;;;;;67.05;24.48;;;;;;;1.03;100.00;101017.06;4958214;29;20370;-75
2021/12/06 08:04:41;;;;;;;74.18;27.85;;;;;;;0.69;100.00;100988.22;4958999;28;20063;-76
2021/12/06 08:07:07;;;;;;;62.45;22.83;;;;;;;0.82;100.00;101011.03;4960603;28;20035;-74
2021/12/06 08:09:33;;;;;;;60.25;22.80;;;;;;;0.90;100.00;100981.25;4942300;29;20098;-75
2021/12/06 08:11:59;;;;;;;67.28;25.92;;;;;;;0.83;100.00;101061.25;4942805;29;20081;-75
2021/12/06 08:14:25;;;;;;;63.65;23.40;;;;;;;1.17;100.00;101072.81;4946675;28;20462;-76
2021/12/06 08:16:51;;;;;;;61.08;22.63;;;;;;;0.91;100.00;101016.72;4942606;29;20035;-75
2021/12/06 08:19:17;;;;;;;61.08;22.67;;;;;;;1.28;100.00;101103.59;4961726;29;20023;-76
2021/12/06 08:21:43;;;;;;;59.60;24.05;;;;;;;1.81;100.00;101095.97;4924373;29;20134;-76
2021/12/06 08:24:09;;;;;;;55.22;21.55;;;;;;;1.21;100.00;101096.03;4930008;29;20038;-77
2021/12/06 08:26:40;;;;;;;57.22;22.45;;;;;;;0.97;100.00;101108.31;4939767;29;20030;-78
2021/12/06 08:29:11;;;;;;;61.03;22.63;;;;;;;1.21;100.00;101123.81;4932516;29;20378;-76
2021/12/06 08:31:38;;;;;;;59.47;23.35;;;;;;;0.96;100.00;101100.59;4936542;29;20027;-76
2021/12/06 08:34:04;;;;;;;60.28;23.48;;;;;;;1.33;100.00;101120.66;4933075;29;20094;-76
2021/12/06 08:36:30;;;;;;;68.53;27.85;;;;;;;1.67;100.00;101146.06;4949471;28;20035;-76
2021/12/06 08:38:57;;;;;;;58.33;23.23;;;;;;;1.57;100.00;101108.34;4950169;28;20027;-76
2021/12/06 08:41:27;;;;;;;57.55;22.08;;;;;;;0.38;100.00;101007.69;4917386;28;20094;-76
2021/12/06 08:43:55;;;;;;;63.17;23.95;;;;;;;0.74;100.00;101015.69;4939726;29;20026;-75
2021/12/06 08:46:25;;;;;;;80.18;30.17;;;;;;;1.84;100.00;101150.53;4954869;29;20380;-75
2021/12/06 08:48:52;;;;;;;59.92;22.98;;;;;;;0.96;100.00;101080.63;4953129;28;20070;-73
2021/12/06 08:51:23;;;;;;;64.82;23.38;;;;;;;0.97;100.00;101071.06;4952664;29;20026;-72
2021/12/06 08:53:50;;;;;;;64.47;23.40;;;;;;;0.89;100.00;101006.41;4919106;29;20030;-73
2021/12/06 08:56:18;;;;;;;104.75;37.10;;;;;;;1.72;100.00;101145.03;4935287;29;20031;-73
2021/12/06 08:58:44;;;;;;;61.13;22.80;;;;;;;1.33;100.00;101128.47;4926155;29;20126;-73
2021/12/06 09:01:10;;;;;;;59.25;22.70;;;;;;;0.69;100.00;101053.22;4910096;29;20141;-74
2021/12/06 09:03:38;;;;;;;61.40;24.30;;;;;;;0.92;100.00;101063.47;4917776;29;20069;-73
2021/12/06 09:06:08;;;;;;;67.00;24.33;;;;;;;0.60;100.00;101031.88;4940306;29;20031;-72
2021/12/06 09:08:35;;;;;;;68.13;25.88;;;;;;;1.21;100.00;101161.06;4955099;28;21204;-73
2021/12/06 09:11:01;;;;;;;74.20;27.88;;;;;;;1.09;100.00;101044.56;4937791;29;20020;-78
2021/12/06 09:13:29;;;;;;;61.25;25.35;;;;;;;1.45;100.00;101072.44;4928408;29;20040;-74
2021/12/06 09:15:59;;;;;;;74.35;25.85;;;;;;;1.33;100.00;101045.22;4959828;28;20347;-74
2021/12/06 09:18:34;;;;;;;66.93;25.67;;;;;;;0.79;100.00;100951.34;4962561;28;20027;-75
2021/12/06 09:21:03;;;;;;;79.32;30.10;;;;;;;0.91;100.00;101034.94;4924382;28;20023;-76
2021/12/06 09:26:04;;;;;;;81.80;32.67;;;;;;;2.04;100.00;101120.13;5242608;23;20509;-78
2021/12/06 09:28:31;;;;;;;55.83;22.05;;;;;;;1.51;100.00;101139.84;4962965;28;20054;-78
2021/12/06 09:30:58;;;;;;;58.70;23.25;;;;;;;1.70;100.00;101139.03;4969910;28;20030;-76
2021/12/06 09:33:27;;;;;;;62.10;23.85;;;;;;;1.17;100.00;101036.41;4952379;28;20026;-78
2021/12/06 09:35:58;;;;;;;58.85;25.00;;;;;;;1.38;100.00;101105.69;4957562;28;20477;-76
2021/12/06 09:38:34;;;;;;;66.15;24.63;;;;;;;1.30;100.00;101094.81;4942553;28;20023;-75
2021/12/06 09:41:00;;;;;;;61.35;25.13;;;;;;;1.69;100.00;101087.91;4941349;28;20109;-74
2021/12/06 09:43:27;;;;;;;99.20;41.55;;;;;;;2.09;100.00;101142.44;4976062;28;20326;-75
2021/12/06 09:46:12;;;;;;;55.95;23.80;;;;;;;1.89;100.00;101124.28;4961468;28;20041;-75
2021/12/06 09:48:40;;;;;;;63.35;26.02;;;;;;;1.92;100.00;101116.31;4958142;28;20142;-73
2021/12/06 09:51:11;;;;;;;62.38;24.70;;;;;;;1.81;100.00;101131.59;4974984;28;20047;-75
2021/12/06 09:53:43;;;;;;;63.83;25.35;;;;;;;1.78;100.00;101088.31;4957519;28;20082;-74
2021/12/06 09:56:22;;;;;;;65.22;26.63;;;;;;;1.32;100.00;101063.50;4944726;28;20361;-78
2021/12/06 09:58:51;;;;;;;59.47;24.55;;;;;;;1.80;100.00;101090.84;4957799;28;20049;-74
2021/12/06 10:01:22;;;;;;;62.47;25.30;;;;;;;2.08;100.00;101082.59;4962518;28;20031;-77
2021/12/06 10:03:49;;;;;;;60.33;25.30;;;;;;;1.87;100.00;101090.50;4994480;28;20035;-73
2021/12/06 10:06:19;;;;;;;83.25;34.38;;;;;;;2.26;100.00;101109.53;4972625;28;20054;-74
2021/12/06 10:08:49;;;;;;;98.10;39.75;;;;;;;1.99;100.00;101056.97;4968993;28;20018;-76
2021/12/06 10:11:16;;;;;;;109.90;46.60;;;;;;;1.99;100.00;101098.66;4958843;28;20029;-74
2021/12/06 10:13:44;;;;;;;69.78;29.40;;;;;;;1.99;100.00;101081.25;4957268;28;20457;-74
2021/12/06 10:16:15;;;;;;;60.67;24.33;;;;;;;1.50;100.00;101061.81;4958268;28;20027;-74
2021/12/06 10:18:41;;;;;;;52.72;22.67;;;;;;;1.38;100.00;101073.63;4943112;28;20525;-73
2021/12/06 10:21:09;;;;;;;57.72;22.67;;;;;;;1.55;100.00;101013.88;4935292;28;20031;-75
2021/12/06 10:23:38;;;;;;;62.10;25.67;;;;;;;1.52;100.00;101058.25;4956380;28;20019;-73
2021/12/06 10:26:06;;;;;;;71.43;25.90;;;;;;;1.86;100.00;101041.94;4940851;28;20670;-76
2021/12/06 10:28:32;;;;;;;99.93;38.60;;;;;;;1.86;100.00;101081.00;4928692;28;20113;-73
2021/12/06 10:31:03;;;;;;;75.82;27.63;;;;;;;1.63;100.00;101061.19;4971118;28;20027;-75
2021/12/06 10:33:34;;;;;;;62.60;25.15;;;;;;;2.01;100.00;101060.38;4932993;28;20456;-74
2021/12/06 10:36:08;;;;;;;76.82;29.15;;;;;;;2.25;100.00;101067.03;4971284;28;20475;-73
2021/12/06 10:38:47;;;;;;;68.80;26.05;;;;;;;1.77;100.00;101021.53;4921612;28;20019;-75
2021/12/06 10:41:17;;;;;;;77.38;27.73;;;;;;;2.17;100.00;101018.78;4954066;28;20043;-74
2021/12/06 10:43:58;;;;;;;64.50;24.80;;;;;;;1.59;100.00;100984.19;4939029;28;20030;-73
2021/12/06 10:46:26;;;;;;;67.60;26.30;;;;;;;1.94;100.00;101032.91;4959356;28;20082;-74
2021/12/06 10:49:06;;;;;;;74.35;26.67;;;;;;;1.98;100.00;100993.63;4947744;28;20039;-74
2021/12/06 10:51:45;;;;;;;79.97;28.33;;;;;;;1.23;100.00;100997.97;4953941;28;20019;-74
2021/12/06 10:54:21;;;;;;;82.30;29.10;;;;;;;1.04;100.00;100971.94;4964263;28;20038;-74
2021/12/06 10:56:52;;;;;;;87.53;30.13;;;;;;;1.09;100.00;100979.53;4944571;28;20521;-74
2021/12/06 10:59:25;;;;;;;89.05;29.73;;;;;;;1.41;100.00;101013.66;4967684;28;20114;-77
2021/12/06 11:02:31;;;;;;;;;;;;;;;;;;;;;
2021/12/06 11:05:27;;;;;;;86.47;29.27;;;;;;;1.94;100.00;100993.84;4891296;29;20524;-76
2021/12/06 11:08:08;;;;;;;82.03;28.70;;;;;;;1.54;100.00;100915.03;4897740;28;20051;-76
2021/12/06 11:10:54;;;;;;;85.07;30.10;;;;;;;1.83;100.00;100913.63;4898002;29;20032;-74
2021/12/06 11:13:33;;;;;;;83.80;29.45;;;;;;;1.71;100.00;100974.13;4896787;29;20033;-81
2021/12/06 11:16:10;;;;;;;91.18;30.98;;;;;;;1.74;100.00;100972.19;4881447;29;20055;-78
2021/12/06 11:18:42;;;;;;;91.68;30.23;;;;;;;1.64;100.00;100969.19;4869674;29;20073;-77
2021/12/06 11:21:31;;;;;;;95.03;31.33;;;;;;;1.95;100.00;100970.31;4896723;29;20039;-76
2021/12/06 11:24:15;;;;;;;94.80;31.38;;;;;;;1.77;100.00;100969.47;4883463;29;20052;-77
2021/12/06 11:26:49;;;;;;;83.68;31.08;;;;;;;1.42;100.00;100911.25;4886256;29;20053;-76
2021/12/06 11:29:29;;;;;;;92.93;30.27;;;;;;;1.66;100.00;100967.38;4892476;29;20172;-75